aviador You're here:

LFCK Decoded Metar

CASTRES in FRANCE
Report Time2018-06-17 23:00:00
UTC Time2018-06-17 23:34:34
Flight Rules vfr VFR
Wind300° at 12 kt
W.Decomp.*RWY 32: 11.3 kt HW 4.1 kt LCW
W.Rank300° ranks 2
Current wind is above 300° avg. (10.0)
Visibility9999 m
Phenomena:N/A
Clouds:Broken 037 Hf
Overcast 058 Hf
Expected CloudBase > 2,000 ft AGL from Temp-Dew spread
Ceiling3,700 ft
Temp18°C
Dew Point13°C (73% RH)
AAT14.6°C
QNH1025 hPa
Raw Report
METAR LFCK 172300Z AUTO 30012KT 9999 BKN037 OVC058 18/13 Q1025=

Extra information for LFCK:More info

Metar Taf Metar & Taf Last 4 Metars F.Rules Stats Wind Profile Meteogram Temp Stats Airport Information Weather charts Add Link Nearby VenuesMetar ALERT Operation Metar Decoded Social comments